sensor_id;sensor_type;location;lat;lon;timestamp;pressure;altitude;pressure_sealevel;temperature;humidity
80139;BME280;69467;59.842;17.604;2024-01-15T00:01:51;98294.09;;;-4.21;100.00
80139;BME280;69467;59.842;17.604;2024-01-15T00:04:17;98294.34;;;-4.22;100.00
80139;BME280;69467;59.842;17.604;2024-01-15T00:06:42;98289.19;;;-4.24;100.00
80139;BME280;69467;59.842;17.604;2024-01-15T00:09:07;98286.75;;;-4.25;100.00
80139;BME280;69467;59.842;17.604;2024-01-15T00:11:32;98288.81;;;-4.27;100.00
80139;BME280;69467;59.842;17.604;2024-01-15T00:13:58;98284.53;;;-4.28;100.00
80139;BME280;69467;59.842;17.604;2024-01-15T00:16:23;98282.31;;;-4.31;100.00
80139;BME280;69467;59.842;17.604;2024-01-15T00:18:49;98280.66;;;-4.32;100.00
80139;BME280;69467;59.842;17.604;2024-01-15T00:21:14;98276.38;;;-4.33;100.00
80139;BME280;69467;59.842;17.604;2024-01-15T00:23:42;98275.19;;;-4.38;100.00
80139;BME280;69467;59.842;17.604;2024-01-15T00:26:09;98275.78;;;-4.35;100.00
80139;BME280;69467;59.842;17.604;2024-01-15T00:28:35;98273.69;;;-4.33;100.00
80139;BME280;69467;59.842;17.604;2024-01-15T00:31:00;98264.50;;;-4.38;100.00
80139;BME280;69467;59.842;17.604;2024-01-15T00:33:26;98267.97;;;-4.37;100.00
80139;BME280;69467;59.842;17.604;2024-01-15T00:35:51;98274.16;;;-4.37;100.00
80139;BME280;69467;59.842;17.604;2024-01-15T00:38:16;98267.66;;;-4.41;100.00
80139;BME280;69467;59.842;17.604;2024-01-15T00:40:42;98266.44;;;-4.45;100.00
80139;BME280;69467;59.842;17.604;2024-01-15T00:43:07;98262.59;;;-4.49;100.00
80139;BME280;69467;59.842;17.604;2024-01-15T00:45:32;98251.09;;;-4.49;100.00
80139;BME280;69467;59.842;17.604;2024-01-15T00:47:58;98265.94;;;-4.54;100.00
80139;BME280;69467;59.842;17.604;2024-01-15T00:50:24;98261.88;;;-4.56;100.00
80139;BME280;69467;59.842;17.604;2024-01-15T00:52:49;98258.44;;;-4.63;100.00
80139;BME280;69467;59.842;17.604;2024-01-15T00:55:15;98257.72;;;-4.71;100.00
80139;BME280;69467;59.842;17.604;2024-01-15T00:57:40;98260.19;;;-4.69;100.00
80139;BME280;69467;59.842;17.604;2024-01-15T01:00:05;98258.19;;;-4.74;100.00
80139;BME280;69467;59.842;17.604;2024-01-15T01:02:31;98259.22;;;-4.75;100.00
80139;BME280;69467;59.842;17.604;2024-01-15T01:04:56;98258.75;;;-4.72;100.00
80139;BME280;69467;59.842;17.604;2024-01-15T01:07:22;98256.31;;;-4.73;100.00
80139;BME280;69467;59.842;17.604;2024-01-15T01:09:47;98255.38;;;-4.79;100.00
80139;BME280;69467;59.842;17.604;2024-01-15T01:12:13;98253.72;;;-4.80;100.00
80139;BME280;69467;59.842;17.604;2024-01-15T01:14:38;98247.56;;;-4.80;100.00
80139;BME280;69467;59.842;17.604;2024-01-15T01:17:03;98242.53;;;-4.89;100.00
80139;BME280;69467;59.842;17.604;2024-01-15T01:19:29;98245.22;;;-4.89;100.00
80139;BME280;69467;59.842;17.604;2024-01-15T01:21:55;98248.06;;;-4.90;100.00
80139;BME280;69467;59.842;17.604;2024-01-15T01:24:20;98247.72;;;-4.94;100.00
80139;BME280;69467;59.842;17.604;2024-01-15T01:26:46;98250.16;;;-4.92;100.00
80139;BME280;69467;59.842;17.604;2024-01-15T01:29:11;98246.47;;;-4.91;100.00
80139;BME280;69467;59.842;17.604;2024-01-15T01:31:41;98244.09;;;-4.99;100.00
80139;BME280;69467;59.842;17.604;2024-01-15T01:34:07;98251.63;;;-4.96;100.00
80139;BME280;69467;59.842;17.604;2024-01-15T01:36:32;98254.09;;;-4.95;100.00
80139;BME280;69467;59.842;17.604;2024-01-15T01:38:57;98245.72;;;-4.98;100.00
80139;BME280;69467;59.842;17.604;2024-01-15T01:41:23;98258.03;;;-4.97;100.00
80139;BME280;69467;59.842;17.604;2024-01-15T01:43:49;98248.97;;;-4.96;100.00
80139;BME280;69467;59.842;17.604;2024-01-15T01:46:14;98244.09;;;-4.99;100.00
80139;BME280;69467;59.842;17.604;2024-01-15T01:48:40;98249.44;;;-4.99;100.00
80139;BME280;69467;59.842;17.604;2024-01-15T01:51:05;98248.25;;;-5.04;100.00
80139;BME280;69467;59.842;17.604;2024-01-15T01:53:32;98251.34;;;-5.07;100.00
80139;BME280;69467;59.842;17.604;2024-01-15T01:55:58;98243.63;;;-5.15;100.00
80139;BME280;69467;59.842;17.604;2024-01-15T01:58:24;98241.78;;;-5.14;100.00
80139;BME280;69467;59.842;17.604;2024-01-15T02:00:50;98243.84;;;-5.17;100.00
80139;BME280;69467;59.842;17.604;2024-01-15T02:03:15;98252.69;;;-5.16;100.00
80139;BME280;69467;59.842;17.604;2024-01-15T02:05:41;98256.59;;;-5.19;100.00
80139;BME280;69467;59.842;17.604;2024-01-15T02:08:07;98250.28;;;-5.24;100.00
80139;BME280;69467;59.842;17.604;2024-01-15T02:10:33;98250.91;;;-5.22;100.00
80139;BME280;69467;59.842;17.604;2024-01-15T02:12:58;98251.47;;;-5.20;100.00
80139;BME280;69467;59.842;17.604;2024-01-15T02:15:23;98243.47;;;-5.20;100.00
80139;BME280;69467;59.842;17.604;2024-01-15T02:18:02;98244.06;;;-5.18;100.00
80139;BME280;69467;59.842;17.604;2024-01-15T02:20:27;98256.16;;;-5.15;100.00
80139;BME280;69467;59.842;17.604;2024-01-15T02:22:53;98252.88;;;-5.18;100.00
80139;BME280;69467;59.842;17.604;2024-01-15T02:25:18;98249.63;;;-5.20;100.00
80139;BME280;69467;59.842;17.604;2024-01-15T02:27:44;98257.03;;;-5.22;100.00
80139;BME280;69467;59.842;17.604;2024-01-15T02:30:09;98253.56;;;-5.22;100.00
80139;BME280;69467;59.842;17.604;2024-01-15T02:32:36;98244.97;;;-5.24;100.00
80139;BME280;69467;59.842;17.604;2024-01-15T02:35:01;98247.28;;;-5.35;100.00
80139;BME280;69467;59.842;17.604;2024-01-15T02:37:26;98244.81;;;-5.29;100.00
80139;BME280;69467;59.842;17.604;2024-01-15T02:39:51;98254.44;;;-5.28;100.00
80139;BME280;69467;59.842;17.604;2024-01-15T02:42:17;98247.69;;;-5.31;100.00
80139;BME280;69467;59.842;17.604;2024-01-15T02:44:42;98238.88;;;-5.31;100.00
80139;BME280;69467;59.842;17.604;2024-01-15T02:47:07;98243.59;;;-5.34;100.00
80139;BME280;69467;59.842;17.604;2024-01-15T02:49:32;98244.84;;;-5.36;100.00
80139;BME280;69467;59.842;17.604;2024-01-15T02:51:58;98241.00;;;-5.40;100.00
80139;BME280;69467;59.842;17.604;2024-01-15T02:54:23;98237.97;;;-5.44;100.00
80139;BME280;69467;59.842;17.604;2024-01-15T02:56:48;98252.72;;;-5.41;100.00
80139;BME280;69467;59.842;17.604;2024-01-15T02:59:14;98242.03;;;-5.41;100.00
80139;BME280;69467;59.842;17.604;2024-01-15T03:01:39;98245.59;;;-5.47;100.00
80139;BME280;69467;59.842;17.604;2024-01-15T03:04:04;98240.47;;;-5.49;100.00
80139;BME280;69467;59.842;17.604;2024-01-15T03:06:29;98239.22;;;-5.46;100.00
80139;BME280;69467;59.842;17.604;2024-01-15T03:08:54;98246.19;;;-5.45;100.00
80139;BME280;69467;59.842;17.604;2024-01-15T03:11:20;98247.00;;;-5.45;100.00
80139;BME280;69467;59.842;17.604;2024-01-15T03:13:45;98251.94;;;-5.48;100.00
80139;BME280;69467;59.842;17.604;2024-01-15T03:16:10;98246.03;;;-5.51;100.00
80139;BME280;69467;59.842;17.604;2024-01-15T03:18:35;98254.84;;;-5.50;100.00
80139;BME280;69467;59.842;17.604;2024-01-15T03:21:01;98236.44;;;-5.58;100.00
80139;BME280;69467;59.842;17.604;2024-01-15T03:23:26;98245.66;;;-5.54;100.00
80139;BME280;69467;59.842;17.604;2024-01-15T03:25:51;98247.50;;;-5.55;100.00
80139;BME280;69467;59.842;17.604;2024-01-15T03:28:17;98246.91;;;-5.57;100.00
80139;BME280;69467;59.842;17.604;2024-01-15T03:30:42;98233.78;;;-5.58;100.00
80139;BME280;69467;59.842;17.604;2024-01-15T03:33:07;98253.69;;;-5.61;100.00
80139;BME280;69467;59.842;17.604;2024-01-15T03:35:32;98249.19;;;-5.60;100.00
80139;BME280;69467;59.842;17.604;2024-01-15T03:37:58;98243.63;;;-5.59;100.00
80139;BME280;69467;59.842;17.604;2024-01-15T03:40:23;98243.63;;;-5.59;100.00
80139;BME280;69467;59.842;17.604;2024-01-15T03:42:48;98251.88;;;-5.60;100.00
80139;BME280;69467;59.842;17.604;2024-01-15T03:45:14;98246.94;;;-5.63;100.00
80139;BME280;69467;59.842;17.604;2024-01-15T03:47:39;98251.88;;;-5.60;100.00
80139;BME280;69467;59.842;17.604;2024-01-15T03:50:05;98247.19;;;-5.65;100.00
80139;BME280;69467;59.842;17.604;2024-01-15T03:52:30;98257.00;;;-5.66;100.00
80139;BME280;69467;59.842;17.604;2024-01-15T03:54:55;98250.88;;;-5.66;100.00
80139;BME280;69467;59.842;17.604;2024-01-15T03:57:20;98245.38;;;-5.71;100.00
80139;BME280;69467;59.842;17.604;2024-01-15T03:59:46;98257.88;;;-5.72;100.00
80139;BME280;69467;59.842;17.604;2024-01-15T04:02:12;98250.72;;;-5.71;100.00
80139;BME280;69467;59.842;17.604;2024-01-15T04:04:40;98250.09;;;-5.73;100.00
80139;BME280;69467;59.842;17.604;2024-01-15T04:07:05;98259.34;;;-5.76;100.00
80139;BME280;69467;59.842;17.604;2024-01-15T04:09:30;98253.22;;;-5.76;100.00
80139;BME280;69467;59.842;17.604;2024-01-15T04:11:56;98255.06;;;-5.77;100.00
80139;BME280;69467;59.842;17.604;2024-01-15T04:14:21;98257.13;;;-5.79;100.00
80139;BME280;69467;59.842;17.604;2024-01-15T04:16:46;98257.94;;;-5.78;100.00
80139;BME280;69467;59.842;17.604;2024-01-15T04:19:12;98258.75;;;-5.78;100.00
80139;BME280;69467;59.842;17.604;2024-01-15T04:21:37;98259.56;;;-5.77;100.00
80139;BME280;69467;59.842;17.604;2024-01-15T04:24:02;98262.03;;;-5.76;100.00
80139;BME280;69467;59.842;17.604;2024-01-15T04:26:27;98260.16;;;-5.75;100.00
80139;BME280;69467;59.842;17.604;2024-01-15T04:28:53;98261.41;;;-5.78;100.00
80139;BME280;69467;59.842;17.604;2024-01-15T04:31:24;98265.94;;;-5.78;100.00
80139;BME280;69467;59.842;17.604;2024-01-15T04:33:50;98273.72;;;-5.77;100.00
80139;BME280;69467;59.842;17.604;2024-01-15T04:36:15;98266.16;;;-5.80;100.00
80139;BME280;69467;59.842;17.604;2024-01-15T04:38:40;98269.41;;;-5.78;100.00
80139;BME280;69467;59.842;17.604;2024-01-15T04:41:06;98270.88;;;-5.82;100.00
80139;BME280;69467;59.842;17.604;2024-01-15T04:43:31;98282.00;;;-5.85;100.00
80139;BME280;69467;59.842;17.604;2024-01-15T04:45:57;98276.66;;;-5.85;100.00
80139;BME280;69467;59.842;17.604;2024-01-15T04:48:22;98276.06;;;-5.87;100.00
80139;BME280;69467;59.842;17.604;2024-01-15T04:50:48;98269.31;;;-5.90;100.00
80139;BME280;69467;59.842;17.604;2024-01-15T04:53:13;98259.06;;;-5.93;100.00
80139;BME280;69467;59.842;17.604;2024-01-15T04:55:38;98277.13;;;-5.95;100.00
80139;BME280;69467;59.842;17.604;2024-01-15T04:58:04;98283.88;;;-5.92;100.00
80139;BME280;69467;59.842;17.604;2024-01-15T05:00:29;98279.13;;;-5.90;100.00
80139;BME280;69467;59.842;17.604;2024-01-15T05:02:54;98281.78;;;-5.90;100.00
80139;BME280;69467;59.842;17.604;2024-01-15T05:05:21;98272.78;;;-5.89;100.00
80139;BME280;69467;59.842;17.604;2024-01-15T05:07:46;98274.41;;;-5.88;100.00
80139;BME280;69467;59.842;17.604;2024-01-15T05:10:11;98277.69;;;-5.86;100.00
80139;BME280;69467;59.842;17.604;2024-01-15T05:12:37;98278.94;;;-5.89;100.00
80139;BME280;69467;59.842;17.604;2024-01-15T05:15:03;98281.38;;;-5.87;100.00
80139;BME280;69467;59.842;17.604;2024-01-15T05:17:29;98277.06;;;-5.88;100.00
80139;BME280;69467;59.842;17.604;2024-01-15T05:19:54;98274.84;;;-5.91;100.00
80139;BME280;69467;59.842;17.604;2024-01-15T05:22:19;98275.88;;;-5.92;100.00
80139;BME280;69467;59.842;17.604;2024-01-15T05:24:46;98275.66;;;-5.91;100.00
80139;BME280;69467;59.842;17.604;2024-01-15T05:27:11;98279.97;;;-5.90;100.00
80139;BME280;69467;59.842;17.604;2024-01-15T05:29:36;98276.91;;;-5.93;100.00
80139;BME280;69467;59.842;17.604;2024-01-15T05:32:01;98281.63;;;-5.95;100.00
80139;BME280;69467;59.842;17.604;2024-01-15T05:34:27;98283.88;;;-5.92;100.00
80139;BME280;69467;59.842;17.604;2024-01-15T05:36:52;98284.91;;;-5.93;100.00
80139;BME280;69467;59.842;17.604;2024-01-15T05:39:18;98280.59;;;-5.94;100.00
80139;BME280;69467;59.842;17.604;2024-01-15T05:41:43;98273.84;;;-5.97;100.00
80139;BME280;69467;59.842;17.604;2024-01-15T05:44:08;98267.50;;;-5.96;100.00
80139;BME280;69467;59.842;17.604;2024-01-15T05:46:33;98272.47;;;-6.00;100.00
80139;BME280;69467;59.842;17.604;2024-01-15T05:48:59;98282.31;;;-6.00;100.00
80139;BME280;69467;59.842;17.604;2024-01-15T05:51:24;98279.84;;;-6.02;100.00
80139;BME280;69467;59.842;17.604;2024-01-15T05:53:49;98289.72;;;-6.02;100.00
80139;BME280;69467;59.842;17.604;2024-01-15T05:56:14;98287.84;;;-6.02;100.00
80139;BME280;69467;59.842;17.604;2024-01-15T05:58:40;98290.28;;;-6.00;100.00
80139;BME280;69467;59.842;17.604;2024-01-15T06:01:05;98287.84;;;-6.02;100.00
80139;BME280;69467;59.842;17.604;2024-01-15T06:03:30;98286.03;;;-6.01;100.00
80139;BME280;69467;59.842;17.604;2024-01-15T06:05:56;98295.84;;;-6.02;100.00
80139;BME280;69467;59.842;17.604;2024-01-15T06:08:21;98286.22;;;-6.03;100.00
80139;BME280;69467;59.842;17.604;2024-01-15T06:10:46;98295.84;;;-6.02;100.00
80139;BME280;69467;59.842;17.604;2024-01-15T06:13:11;98291.53;;;-6.03;100.00
80139;BME280;69467;59.842;17.604;2024-01-15T06:15:38;98292.56;;;-6.04;100.00
80139;BME280;69467;59.842;17.604;2024-01-15T06:18:03;98294.22;;;-6.03;100.00
80139;BME280;69467;59.842;17.604;2024-01-15T06:20:29;98295.91;;;-6.08;100.00
80139;BME280;69467;59.842;17.604;2024-01-15T06:22:54;98293.00;;;-6.07;100.00
80139;BME280;69467;59.842;17.604;2024-01-15T06:25:19;98296.06;;;-6.03;100.00
80139;BME280;69467;59.842;17.604;2024-01-15T06:27:45;98296.28;;;-6.05;100.00
80139;BME280;69467;59.842;17.604;2024-01-15T06:30:10;98288.31;;;-6.11;100.00
80139;BME280;69467;59.842;17.604;2024-01-15T06:32:35;98301.22;;;-6.08;100.00
80139;BME280;69467;59.842;17.604;2024-01-15T06:35:01;98298.56;;;-6.08;100.00
80139;BME280;69467;59.842;17.604;2024-01-15T06:37:26;98302.66;;;-6.06;100.00
80139;BME280;69467;59.842;17.604;2024-01-15T06:39:51;98305.09;;;-6.04;100.00
80139;BME280;69467;59.842;17.604;2024-01-15T06:42:16;98301.63;;;-6.05;100.00
80139;BME280;69467;59.842;17.604;2024-01-15T06:44:42;98312.69;;;-6.08;100.00
80139;BME280;69467;59.842;17.604;2024-01-15T06:47:07;98311.06;;;-6.09;100.00
80139;BME280;69467;59.842;17.604;2024-01-15T06:49:32;98311.88;;;-6.08;100.00
80139;BME280;69467;59.842;17.604;2024-01-15T06:51:58;98320.69;;;-6.08;100.00
80139;BME280;69467;59.842;17.604;2024-01-15T06:54:23;98318.03;;;-6.08;100.00
80139;BME280;69467;59.842;17.604;2024-01-15T06:56:49;98320.69;;;-6.08;100.00
80139;BME280;69467;59.842;17.604;2024-01-15T06:59:14;98319.88;;;-6.08;100.00
80139;BME280;69467;59.842;17.604;2024-01-15T07:01:39;98319.50;;;-6.12;100.00
80139;BME280;69467;59.842;17.604;2024-01-15T07:04:05;98324.19;;;-6.14;100.00
80139;BME280;69467;59.842;17.604;2024-01-15T07:06:30;98312.94;;;-6.16;100.00
80139;BME280;69467;59.842;17.604;2024-01-15T07:08:56;98320.50;;;-6.13;100.00
80139;BME280;69467;59.842;17.604;2024-01-15T07:11:21;98323.41;;;-6.15;100.00
80139;BME280;69467;59.842;17.604;2024-01-15T07:13:47;98326.88;;;-6.14;100.00
80139;BME280;69467;59.842;17.604;2024-01-15T07:16:12;98332.81;;;-6.12;100.00
80139;BME280;69467;59.842;17.604;2024-01-15T07:18:37;98330.72;;;-6.10;100.00
80139;BME280;69467;59.842;17.604;2024-01-15T07:21:03;98331.56;;;-6.09;100.00
80139;BME280;69467;59.842;17.604;2024-01-15T07:23:28;98329.13;;;-6.11;100.00
80139;BME280;69467;59.842;17.604;2024-01-15T07:25:53;98334.00;;;-6.08;100.00
80139;BME280;69467;59.842;17.604;2024-01-15T07:28:19;98334.00;;;-6.08;100.00
80139;BME280;69467;59.842;17.604;2024-01-15T07:30:44;98336.44;;;-6.06;100.00
80139;BME280;69467;59.842;17.604;2024-01-15T07:33:10;98340.34;;;-6.09;100.00
80139;BME280;69467;59.842;17.604;2024-01-15T07:35:35;98343.25;;;-6.10;100.00
80139;BME280;69467;59.842;17.604;2024-01-15T07:38:01;98349.59;;;-6.11;100.00
80139;BME280;69467;59.842;17.604;2024-01-15T07:40:26;98353.72;;;-6.16;100.00
80139;BME280;69467;59.842;17.604;2024-01-15T07:42:51;98341.22;;;-6.15;100.00
80139;BME280;69467;59.842;17.604;2024-01-15T07:45:17;98358.84;;;-6.14;100.00
80139;BME280;69467;59.842;17.604;2024-01-15T07:47:42;98363.13;;;-6.13;100.00
80139;BME280;69467;59.842;17.604;2024-01-15T07:50:07;98353.09;;;-6.11;100.00
80139;BME280;69467;59.842;17.604;2024-01-15T07:52:32;98343.88;;;-6.15;100.00
80139;BME280;69467;59.842;17.604;2024-01-15T07:54:58;98355.94;;;-6.12;100.00
80139;BME280;69467;59.842;17.604;2024-01-15T07:57:28;98353.09;;;-6.11;100.00
80139;BME280;69467;59.842;17.604;2024-01-15T07:59:53;98364.78;;;-6.12;100.00
80139;BME280;69467;59.842;17.604;2024-01-15T08:02:19;98372.34;;;-6.09;100.00
80139;BME280;69467;59.842;17.604;2024-01-15T08:04:44;98368.03;;;-6.10;100.00
80139;BME280;69467;59.842;17.604;2024-01-15T08:07:10;98367.63;;;-6.07;100.00
80139;BME280;69467;59.842;17.604;2024-01-15T08:09:36;98367.00;;;-6.09;100.00
80139;BME280;69467;59.842;17.604;2024-01-15T08:12:01;98377.06;;;-6.11;100.00
80139;BME280;69467;59.842;17.604;2024-01-15T08:14:26;98377.66;;;-6.09;100.00
80139;BME280;69467;59.842;17.604;2024-01-15T08:16:52;98379.53;;;-6.09;100.00
80139;BME280;69467;59.842;17.604;2024-01-15T08:19:17;98371.94;;;-6.06;100.00
80139;BME280;69467;59.842;17.604;2024-01-15T08:21:42;98371.72;;;-6.04;100.00
80139;BME280;69467;59.842;17.604;2024-01-15T08:24:08;98373.13;;;-6.02;100.00
80139;BME280;69467;59.842;17.604;2024-01-15T08:26:33;98367.78;;;-6.02;100.00
80139;BME280;69467;59.842;17.604;2024-01-15T08:28:58;98369.22;;;-5.99;100.00
80139;BME280;69467;59.842;17.604;2024-01-15T08:31:24;98367.38;;;-5.99;100.00
80139;BME280;69467;59.842;17.604;2024-01-15T08:33:50;98370.41;;;-5.95;100.00
80139;BME280;69467;59.842;17.604;2024-01-15T08:36:15;98372.25;;;-5.95;100.00
80139;BME280;69467;59.842;17.604;2024-01-15T08:38:40;98381.06;;;-5.95;100.00
80139;BME280;69467;59.842;17.604;2024-01-15T08:41:05;98376.16;;;-5.98;100.00
80139;BME280;69467;59.842;17.604;2024-01-15T08:43:31;98385.56;;;-5.95;100.00
80139;BME280;69467;59.842;17.604;2024-01-15T08:45:56;98394.19;;;-5.93;100.00
80139;BME280;69467;59.842;17.604;2024-01-15T08:48:22;98382.28;;;-5.98;100.00
80139;BME280;69467;59.842;17.604;2024-01-15T08:50:47;98382.28;;;-5.98;100.00
80139;BME280;69467;59.842;17.604;2024-01-15T08:53:12;98390.91;;;-5.95;100.00
80139;BME280;69467;59.842;17.604;2024-01-15T08:55:38;98385.56;;;-5.95;100.00
80139;BME280;69467;59.842;17.604;2024-01-15T08:58:03;98385.34;;;-5.94;100.00
80139;BME280;69467;59.842;17.604;2024-01-15T09:00:29;98385.56;;;-5.89;100.00
80139;BME280;69467;59.842;17.604;2024-01-15T09:02:55;98381.66;;;-5.86;100.00
80139;BME280;69467;59.842;17.604;2024-01-15T09:05:21;98384.69;;;-5.83;100.00
80139;BME280;69467;59.842;17.604;2024-01-15T09:07:46;98388.78;;;-5.80;100.00
80139;BME280;69467;59.842;17.604;2024-01-15T09:10:12;98381.81;;;-5.81;100.00
80139;BME280;69467;59.842;17.604;2024-01-15T09:12:37;98384.31;;;-5.86;100.00
80139;BME280;69467;59.842;17.604;2024-01-15T09:15:04;98376.09;;;-5.85;100.00
80139;BME280;69467;59.842;17.604;2024-01-15T09:17:29;98378.53;;;-5.83;100.00
80139;BME280;69467;59.842;17.604;2024-01-15T09:19:54;98383.88;;;-5.83;100.00
80139;BME280;69467;59.842;17.604;2024-01-15T09:22:20;98383.00;;;-5.77;100.00
80139;BME280;69467;59.842;17.604;2024-01-15T09:24:45;98388.50;;;-5.72;100.00
80139;BME280;69467;59.842;17.604;2024-01-15T09:27:11;98394.84;;;-5.66;100.00
80139;BME280;69467;59.842;17.604;2024-01-15T09:29:36;98394.41;;;-5.63;100.00
80139;BME280;69467;59.842;17.604;2024-01-15T09:32:07;98398.91;;;-5.57;100.00
80139;BME280;69467;59.842;17.604;2024-01-15T09:34:32;98394.34;;;-5.50;100.00
80139;BME280;69467;59.842;17.604;2024-01-15T09:36:58;98400.06;;;-5.46;100.00
80139;BME280;69467;59.842;17.604;2024-01-15T09:39:25;98397.59;;;-5.47;100.00
80139;BME280;69467;59.842;17.604;2024-01-15T09:41:50;98393.91;;;-5.46;100.00
80139;BME280;69467;59.842;17.604;2024-01-15T09:44:15;98401.53;;;-5.50;100.00
80139;BME280;69467;59.842;17.604;2024-01-15T09:46:41;98402.16;;;-5.55;100.00
80139;BME280;69467;59.842;17.604;2024-01-15T09:49:08;98405.06;;;-5.56;100.00
80139;BME280;69467;59.842;17.604;2024-01-15T09:51:34;98398.47;;;-5.54;100.00
80139;BME280;69467;59.842;17.604;2024-01-15T09:54:01;98396.84;;;-5.55;100.00
80139;BME280;69467;59.842;17.604;2024-01-15T09:56:27;98403.03;;;-5.61;100.00
80139;BME280;69467;59.842;17.604;2024-01-15T09:58:52;98399.31;;;-5.60;100.00
80139;BME280;69467;59.842;17.604;2024-01-15T10:01:17;98407.09;;;-5.52;100.00
80139;BME280;69467;59.842;17.604;2024-01-15T10:03:45;98400.09;;;-5.53;100.00
80139;BME280;69467;59.842;17.604;2024-01-15T10:06:11;98404.41;;;-5.52;100.00
80139;BME280;69467;59.842;17.604;2024-01-15T10:08:39;98400.66;;;-5.44;100.00
80139;BME280;69467;59.842;17.604;2024-01-15T10:11:05;98406.00;;;-5.44;100.00
80139;BME280;69467;59.842;17.604;2024-01-15T10:13:30;98411.94;;;-5.42;100.00
80139;BME280;69467;59.842;17.604;2024-01-15T10:15:56;98418.09;;;-5.41;100.00
80139;BME280;69467;59.842;17.604;2024-01-15T10:18:23;98413.56;;;-5.41;100.00
80139;BME280;69467;59.842;17.604;2024-01-15T10:20:48;98410.47;;;-5.38;100.00
80139;BME280;69467;59.842;17.604;2024-01-15T10:23:14;98409.00;;;-5.34;100.00
80139;BME280;69467;59.842;17.604;2024-01-15T10:25:40;98418.22;;;-5.29;100.00
80139;BME280;69467;59.842;17.604;2024-01-15T10:28:06;98423.75;;;-5.31;100.00
80139;BME280;69467;59.842;17.604;2024-01-15T10:30:32;98421.31;;;-5.32;100.00
80139;BME280;69467;59.842;17.604;2024-01-15T10:32:58;98428.69;;;-5.28;100.00
80139;BME280;69467;59.842;17.604;2024-01-15T10:35:26;98426.22;;;-5.29;100.00
80139;BME280;69467;59.842;17.604;2024-01-15T10:37:51;98418.00;;;-5.28;100.00
80139;BME280;69467;59.842;17.604;2024-01-15T10:40:17;98427.19;;;-5.24;100.00
80139;BME280;69467;59.842;17.604;2024-01-15T10:42:43;98425.94;;;-5.21;100.00
80139;BME280;69467;59.842;17.604;2024-01-15T10:45:09;98431.50;;;-5.23;100.00
80139;BME280;69467;59.842;17.604;2024-01-15T10:47:34;98422.53;;;-5.28;100.00
80139;BME280;69467;59.842;17.604;2024-01-15T10:50:01;98435.69;;;-5.34;100.00
80139;BME280;69467;59.842;17.604;2024-01-15T10:52:27;98432.81;;;-5.32;100.00
80139;BME280;69467;59.842;17.604;2024-01-15T10:54:53;98431.97;;;-5.32;100.00
80139;BME280;69467;59.842;17.604;2024-01-15T10:57:18;98429.94;;;-5.30;100.00
80139;BME280;69467;59.842;17.604;2024-01-15T10:59:46;98428.06;;;-5.30;100.00
80139;BME280;69467;59.842;17.604;2024-01-15T11:02:12;98424.41;;;-5.36;100.00
80139;BME280;69467;59.842;17.604;2024-01-15T11:04:38;98423.81;;;-5.38;100.00
80139;BME280;69467;59.842;17.604;2024-01-15T11:07:03;98433.22;;;-5.35;100.00
80139;BME280;69467;59.842;17.604;2024-01-15T11:09:30;98435.28;;;-5.37;100.00
80139;BME280;69467;59.842;17.604;2024-01-15T11:12:09;98429.56;;;-5.41;100.00
80139;BME280;69467;59.842;17.604;2024-01-15T11:17:08;98431.44;;;-5.41;100.00
80139;BME280;69467;59.842;17.604;2024-01-15T11:22:05;98421.19;;;-5.44;100.00
80139;BME280;69467;59.842;17.604;2024-01-15T11:24:40;98432.69;;;-5.44;100.00
80139;BME280;69467;59.842;17.604;2024-01-15T11:27:06;98431.25;;;-5.46;100.00
80139;BME280;69467;59.842;17.604;2024-01-15T11:29:35;98420.38;;;-5.45;100.00
80139;BME280;69467;59.842;17.604;2024-01-15T11:34:51;98435.59;;;-5.52;100.00
80139;BME280;69467;59.842;17.604;2024-01-15T11:37:17;98438.25;;;-5.52;100.00
80139;BME280;69467;59.842;17.604;2024-01-15T11:39:42;98442.56;;;-5.51;100.00
80139;BME280;69467;59.842;17.604;2024-01-15T11:42:12;98444.41;;;-5.52;100.00
80139;BME280;69467;59.842;17.604;2024-01-15T11:44:38;98444.03;;;-5.55;100.00
80139;BME280;69467;59.842;17.604;2024-01-15T11:47:07;98446.47;;;-5.54;100.00
80139;BME280;69467;59.842;17.604;2024-01-15T11:51:58;98445.63;;;-5.47;100.00
80139;BME280;69467;59.842;17.604;2024-01-15T11:54:26;98448.50;;;-5.49;100.00
80139;BME280;69467;59.842;17.604;2024-01-15T11:56:54;98451.19;;;-5.49;100.00
80139;BME280;69467;59.842;17.604;2024-01-15T11:59:21;98446.06;;;-5.51;100.00
80139;BME280;69467;59.842;17.604;2024-01-15T12:01:46;98443.41;;;-5.51;100.00
80139;BME280;69467;59.842;17.604;2024-01-15T12:04:11;98451.81;;;-5.54;100.00
80139;BME280;69467;59.842;17.604;2024-01-15T12:06:38;98454.88;;;-5.50;100.00
80139;BME280;69467;59.842;17.604;2024-01-15T12:09:06;98451.75;;;-5.47;100.00
80139;BME280;69467;59.842;17.604;2024-01-15T12:11:32;98458.31;;;-5.43;100.00
80139;BME280;69467;59.842;17.604;2024-01-15T12:13:58;98456.22;;;-5.41;100.00
80139;BME280;69467;59.842;17.604;2024-01-15T12:16:24;98453.38;;;-5.39;100.00
80139;BME280;69467;59.842;17.604;2024-01-15T12:18:50;98456.84;;;-5.39;100.00
80139;BME280;69467;59.842;17.604;2024-01-15T12:21:15;98452.53;;;-5.40;100.00
80139;BME280;69467;59.842;17.604;2024-01-15T12:23:41;98458.72;;;-5.39;100.00
80139;BME280;69467;59.842;17.604;2024-01-15T12:26:06;98461.16;;;-5.38;100.00
80139;BME280;69467;59.842;17.604;2024-01-15T12:28:31;98456.22;;;-5.41;100.00
80139;BME280;69467;59.842;17.604;2024-01-15T12:30:57;98458.09;;;-5.41;100.00
80139;BME280;69467;59.842;17.604;2024-01-15T12:33:24;98464.47;;;-5.42;100.00
80139;BME280;69467;59.842;17.604;2024-01-15T12:35:52;98457.28;;;-5.42;100.00
80139;BME280;69467;59.842;17.604;2024-01-15T12:38:18;98453.78;;;-5.42;100.00
80139;BME280;69467;59.842;17.604;2024-01-15T12:40:44;98460.75;;;-5.41;100.00
80139;BME280;69467;59.842;17.604;2024-01-15T12:43:11;98460.16;;;-5.43;100.00